sensor_id;sensor_type;location;lat;lon;timestamp;P1;durP1;ratioP1;P2;durP2;ratioP2
2624;SDS011;1322;53.256;10.386;2023-02-26T00:00:11;3.17;;;1.63;;
2624;SDS011;1322;53.256;10.386;2023-02-26T00:02:39;5.50;;;1.40;;
2624;SDS011;1322;53.256;10.386;2023-02-26T00:05:06;2.13;;;1.37;;
2624;SDS011;1322;53.256;10.386;2023-02-26T00:07:33;3.60;;;1.37;;
2624;SDS011;1322;53.256;10.386;2023-02-26T00:09:59;2.37;;;1.53;;
2624;SDS011;1322;53.256;10.386;2023-02-26T00:12:28;2.50;;;1.43;;
2624;SDS011;1322;53.256;10.386;2023-02-26T00:14:54;6.40;;;1.47;;
2624;SDS011;1322;53.256;10.386;2023-02-26T00:20:07;1.10;;;0.80;;
2624;SDS011;1322;53.256;10.386;2023-02-26T00:22:35;1.40;;;0.90;;
2624;SDS011;1322;53.256;10.386;2023-02-26T00:25:08;1.47;;;1.00;;
2624;SDS011;1322;53.256;10.386;2023-02-26T00:27:35;1.30;;;0.90;;
2624;SDS011;1322;53.256;10.386;2023-02-26T00:30:02;5.43;;;1.70;;
2624;SDS011;1322;53.256;10.386;2023-02-26T00:32:30;1.63;;;0.97;;
2624;SDS011;1322;53.256;10.386;2023-02-26T00:34:56;2.10;;;1.00;;
2624;SDS011;1322;53.256;10.386;2023-02-26T00:37:26;3.63;;;1.17;;
2624;SDS011;1322;53.256;10.386;2023-02-26T00:42:46;2.67;;;1.23;;
2624;SDS011;1322;53.256;10.386;2023-02-26T00:45:16;2.03;;;1.10;;
2624;SDS011;1322;53.256;10.386;2023-02-26T00:50:26;1.20;;;0.90;;
2624;SDS011;1322;53.256;10.386;2023-02-26T00:55:32;5.03;;;1.40;;
2624;SDS011;1322;53.256;10.386;2023-02-26T00:57:58;2.77;;;1.50;;
2624;SDS011;1322;53.256;10.386;2023-02-26T01:00:24;5.23;;;2.93;;
2624;SDS011;1322;53.256;10.386;2023-02-26T01:02:49;2.23;;;1.10;;
2624;SDS011;1322;53.256;10.386;2023-02-26T01:05:15;3.87;;;1.37;;
2624;SDS011;1322;53.256;10.386;2023-02-26T01:10:32;4.97;;;1.10;;
2624;SDS011;1322;53.256;10.386;2023-02-26T01:12:58;2.60;;;1.33;;
2624;SDS011;1322;53.256;10.386;2023-02-26T01:15:24;2.50;;;1.00;;
2624;SDS011;1322;53.256;10.386;2023-02-26T01:20:30;1.70;;;1.20;;
2624;SDS011;1322;53.256;10.386;2023-02-26T01:23:22;1.77;;;1.23;;
2624;SDS011;1322;53.256;10.386;2023-02-26T01:25:56;4.90;;;1.03;;
2624;SDS011;1322;53.256;10.386;2023-02-26T01:28:30;5.70;;;1.33;;
2624;SDS011;1322;53.256;10.386;2023-02-26T01:30:58;1.73;;;1.30;;
2624;SDS011;1322;53.256;10.386;2023-02-26T01:33:48;2.23;;;1.30;;
2624;SDS011;1322;53.256;10.386;2023-02-26T01:36:19;5.13;;;1.20;;
2624;SDS011;1322;53.256;10.386;2023-02-26T01:38:52;1.80;;;1.10;;
2624;SDS011;1322;53.256;10.386;2023-02-26T01:41:42;1.53;;;1.03;;
2624;SDS011;1322;53.256;10.386;2023-02-26T01:47:01;1.87;;;1.60;;
2624;SDS011;1322;53.256;10.386;2023-02-26T01:49:34;10.97;;;1.87;;
2624;SDS011;1322;53.256;10.386;2023-02-26T01:52:01;2.53;;;1.23;;
2624;SDS011;1322;53.256;10.386;2023-02-26T01:54:29;2.43;;;1.27;;
2624;SDS011;1322;53.256;10.386;2023-02-26T01:57:10;3.93;;;1.90;;
2624;SDS011;1322;53.256;10.386;2023-02-26T01:59:43;2.50;;;1.37;;
2624;SDS011;1322;53.256;10.386;2023-02-26T02:02:13;2.13;;;1.23;;
2624;SDS011;1322;53.256;10.386;2023-02-26T02:04:42;3.37;;;1.53;;
2624;SDS011;1322;53.256;10.386;2023-02-26T02:07:08;3.77;;;1.70;;
2624;SDS011;1322;53.256;10.386;2023-02-26T02:09:35;1.47;;;1.13;;
2624;SDS011;1322;53.256;10.386;2023-02-26T02:17:18;2.70;;;1.33;;
2624;SDS011;1322;53.256;10.386;2023-02-26T02:22:53;2.37;;;1.30;;
2624;SDS011;1322;53.256;10.386;2023-02-26T02:25:34;1.10;;;0.70;;
2624;SDS011;1322;53.256;10.386;2023-02-26T02:33:59;3.87;;;1.40;;
2624;SDS011;1322;53.256;10.386;2023-02-26T02:36:45;5.00;;;1.20;;
2624;SDS011;1322;53.256;10.386;2023-02-26T02:39:23;2.60;;;1.30;;
2624;SDS011;1322;53.256;10.386;2023-02-26T02:42:06;1.30;;;1.10;;
2624;SDS011;1322;53.256;10.386;2023-02-26T02:44:45;3.43;;;1.50;;
2624;SDS011;1322;53.256;10.386;2023-02-26T02:47:29;3.33;;;1.77;;
2624;SDS011;1322;53.256;10.386;2023-02-26T02:50:09;4.50;;;1.53;;
2624;SDS011;1322;53.256;10.386;2023-02-26T02:52:48;1.50;;;1.20;;
2624;SDS011;1322;53.256;10.386;2023-02-26T02:55:22;1.97;;;1.70;;
2624;SDS011;1322;53.256;10.386;2023-02-26T02:57:54;3.03;;;1.50;;
2624;SDS011;1322;53.256;10.386;2023-02-26T03:00:27;4.13;;;1.20;;
2624;SDS011;1322;53.256;10.386;2023-02-26T03:06:07;3.87;;;1.17;;
2624;SDS011;1322;53.256;10.386;2023-02-26T03:08:35;2.77;;;1.20;;
2624;SDS011;1322;53.256;10.386;2023-02-26T03:11:03;2.40;;;1.10;;
2624;SDS011;1322;53.256;10.386;2023-02-26T03:13:29;2.67;;;0.90;;
2624;SDS011;1322;53.256;10.386;2023-02-26T03:26:33;3.50;;;1.10;;
2624;SDS011;1322;53.256;10.386;2023-02-26T03:29:26;1.40;;;1.00;;
2624;SDS011;1322;53.256;10.386;2023-02-26T03:32:06;1.67;;;1.17;;
2624;SDS011;1322;53.256;10.386;2023-02-26T03:38:01;3.50;;;1.40;;
2624;SDS011;1322;53.256;10.386;2023-02-26T03:40:15;4.33;;;1.40;;
2624;SDS011;1322;53.256;10.386;2023-02-26T03:42:43;1.43;;;1.00;;
2624;SDS011;1322;53.256;10.386;2023-02-26T03:45:22;1.93;;;1.23;;
2624;SDS011;1322;53.256;10.386;2023-02-26T03:47:51;3.67;;;1.50;;
2624;SDS011;1322;53.256;10.386;2023-02-26T03:52:53;2.07;;;0.80;;
2624;SDS011;1322;53.256;10.386;2023-02-26T03:55:28;1.67;;;1.33;;
2624;SDS011;1322;53.256;10.386;2023-02-26T03:58:00;3.10;;;1.70;;
2624;SDS011;1322;53.256;10.386;2023-02-26T04:00:26;2.70;;;1.30;;
2624;SDS011;1322;53.256;10.386;2023-02-26T04:05:37;1.87;;;1.20;;
2624;SDS011;1322;53.256;10.386;2023-02-26T04:08:07;3.73;;;1.17;;
2624;SDS011;1322;53.256;10.386;2023-02-26T04:10:37;3.87;;;1.20;;
2624;SDS011;1322;53.256;10.386;2023-02-26T04:13:06;1.20;;;0.73;;
2624;SDS011;1322;53.256;10.386;2023-02-26T04:15:32;1.80;;;1.03;;
2624;SDS011;1322;53.256;10.386;2023-02-26T04:17:58;1.77;;;0.97;;
2624;SDS011;1322;53.256;10.386;2023-02-26T04:20:24;3.97;;;1.00;;
2624;SDS011;1322;53.256;10.386;2023-02-26T04:22:49;1.47;;;0.90;;
2624;SDS011;1322;53.256;10.386;2023-02-26T04:25:15;1.40;;;0.90;;
2624;SDS011;1322;53.256;10.386;2023-02-26T04:27:44;1.40;;;1.00;;
2624;SDS011;1322;53.256;10.386;2023-02-26T04:30:09;1.47;;;1.00;;
2624;SDS011;1322;53.256;10.386;2023-02-26T04:32:38;2.87;;;0.97;;
2624;SDS011;1322;53.256;10.386;2023-02-26T04:35:03;3.40;;;0.90;;
2624;SDS011;1322;53.256;10.386;2023-02-26T04:37:29;5.60;;;1.17;;
2624;SDS011;1322;53.256;10.386;2023-02-26T04:39:55;1.53;;;1.00;;
2624;SDS011;1322;53.256;10.386;2023-02-26T04:42:23;1.97;;;1.00;;
2624;SDS011;1322;53.256;10.386;2023-02-26T04:44:49;3.13;;;1.50;;
2624;SDS011;1322;53.256;10.386;2023-02-26T04:47:14;1.00;;;0.70;;
2624;SDS011;1322;53.256;10.386;2023-02-26T04:49:40;2.53;;;1.10;;
2624;SDS011;1322;53.256;10.386;2023-02-26T04:52:06;1.60;;;0.87;;
2624;SDS011;1322;53.256;10.386;2023-02-26T04:54:31;1.57;;;0.97;;
2624;SDS011;1322;53.256;10.386;2023-02-26T04:56:57;2.23;;;0.70;;
2624;SDS011;1322;53.256;10.386;2023-02-26T04:59:22;5.43;;;1.03;;
2624;SDS011;1322;53.256;10.386;2023-02-26T05:01:48;1.73;;;0.90;;
2624;SDS011;1322;53.256;10.386;2023-02-26T05:04:14;2.17;;;1.13;;
2624;SDS011;1322;53.256;10.386;2023-02-26T05:06:42;2.53;;;1.30;;
2624;SDS011;1322;53.256;10.386;2023-02-26T05:09:08;3.13;;;1.50;;
2624;SDS011;1322;53.256;10.386;2023-02-26T05:11:33;1.60;;;0.93;;
2624;SDS011;1322;53.256;10.386;2023-02-26T05:13:59;3.43;;;1.23;;
2624;SDS011;1322;53.256;10.386;2023-02-26T05:16:24;6.93;;;1.83;;
2624;SDS011;1322;53.256;10.386;2023-02-26T05:18:50;5.27;;;1.33;;
2624;SDS011;1322;53.256;10.386;2023-02-26T05:21:16;2.60;;;1.10;;
2624;SDS011;1322;53.256;10.386;2023-02-26T05:23:41;2.90;;;1.70;;
2624;SDS011;1322;53.256;10.386;2023-02-26T05:26:07;4.80;;;1.13;;
2624;SDS011;1322;53.256;10.386;2023-02-26T05:28:32;1.47;;;1.17;;
2624;SDS011;1322;53.256;10.386;2023-02-26T05:30:58;3.00;;;1.20;;
2624;SDS011;1322;53.256;10.386;2023-02-26T05:33:25;2.23;;;1.10;;
2624;SDS011;1322;53.256;10.386;2023-02-26T05:35:51;2.30;;;0.90;;
2624;SDS011;1322;53.256;10.386;2023-02-26T05:38:17;2.80;;;1.10;;
2624;SDS011;1322;53.256;10.386;2023-02-26T05:40:42;6.40;;;1.53;;
2624;SDS011;1322;53.256;10.386;2023-02-26T05:43:08;8.03;;;1.43;;
2624;SDS011;1322;53.256;10.386;2023-02-26T05:45:34;1.40;;;0.93;;
2624;SDS011;1322;53.256;10.386;2023-02-26T05:48:00;4.27;;;1.00;;
2624;SDS011;1322;53.256;10.386;2023-02-26T05:50:25;2.17;;;1.23;;
2624;SDS011;1322;53.256;10.386;2023-02-26T05:52:51;3.80;;;1.30;;
2624;SDS011;1322;53.256;10.386;2023-02-26T05:55:17;6.50;;;0.90;;
2624;SDS011;1322;53.256;10.386;2023-02-26T05:57:43;4.23;;;1.67;;
2624;SDS011;1322;53.256;10.386;2023-02-26T06:00:09;1.83;;;1.10;;
2624;SDS011;1322;53.256;10.386;2023-02-26T06:02:35;3.03;;;1.10;;
2624;SDS011;1322;53.256;10.386;2023-02-26T06:05:01;1.73;;;1.20;;
2624;SDS011;1322;53.256;10.386;2023-02-26T06:07:27;1.30;;;0.93;;
2624;SDS011;1322;53.256;10.386;2023-02-26T06:09:53;8.07;;;1.40;;
2624;SDS011;1322;53.256;10.386;2023-02-26T06:12:18;1.70;;;1.00;;
2624;SDS011;1322;53.256;10.386;2023-02-26T06:14:44;2.33;;;1.10;;
2624;SDS011;1322;53.256;10.386;2023-02-26T06:17:09;2.40;;;1.30;;
2624;SDS011;1322;53.256;10.386;2023-02-26T06:19:38;3.07;;;1.50;;
2624;SDS011;1322;53.256;10.386;2023-02-26T06:22:06;1.33;;;0.90;;
2624;SDS011;1322;53.256;10.386;2023-02-26T06:24:32;3.30;;;1.20;;
2624;SDS011;1322;53.256;10.386;2023-02-26T06:26:58;2.43;;;1.40;;
2624;SDS011;1322;53.256;10.386;2023-02-26T06:29:23;2.03;;;1.27;;
2624;SDS011;1322;53.256;10.386;2023-02-26T06:31:49;3.30;;;1.27;;
2624;SDS011;1322;53.256;10.386;2023-02-26T06:34:14;2.63;;;1.20;;
2624;SDS011;1322;53.256;10.386;2023-02-26T06:36:40;1.37;;;1.17;;
2624;SDS011;1322;53.256;10.386;2023-02-26T06:39:06;1.30;;;0.80;;
2624;SDS011;1322;53.256;10.386;2023-02-26T06:41:32;8.13;;;1.30;;
2624;SDS011;1322;53.256;10.386;2023-02-26T06:43:58;2.20;;;1.00;;
2624;SDS011;1322;53.256;10.386;2023-02-26T06:46:23;1.70;;;1.10;;
2624;SDS011;1322;53.256;10.386;2023-02-26T06:48:49;1.00;;;0.70;;
2624;SDS011;1322;53.256;10.386;2023-02-26T06:51:15;1.73;;;1.00;;
2624;SDS011;1322;53.256;10.386;2023-02-26T06:53:40;1.20;;;0.97;;
2624;SDS011;1322;53.256;10.386;2023-02-26T06:56:06;1.57;;;1.07;;
2624;SDS011;1322;53.256;10.386;2023-02-26T06:58:32;4.70;;;1.13;;
2624;SDS011;1322;53.256;10.386;2023-02-26T07:00:58;1.77;;;0.90;;
2624;SDS011;1322;53.256;10.386;2023-02-26T07:03:24;1.77;;;0.80;;
2624;SDS011;1322;53.256;10.386;2023-02-26T07:05:50;5.40;;;1.33;;
2624;SDS011;1322;53.256;10.386;2023-02-26T07:08:15;3.00;;;1.13;;
2624;SDS011;1322;53.256;10.386;2023-02-26T07:10:44;4.90;;;1.30;;
2624;SDS011;1322;53.256;10.386;2023-02-26T07:13:13;2.20;;;1.03;;
2624;SDS011;1322;53.256;10.386;2023-02-26T07:15:44;1.77;;;1.13;;
2624;SDS011;1322;53.256;10.386;2023-02-26T07:18:10;2.00;;;1.03;;
2624;SDS011;1322;53.256;10.386;2023-02-26T07:20:35;3.00;;;1.10;;
2624;SDS011;1322;53.256;10.386;2023-02-26T07:23:01;3.00;;;1.00;;
2624;SDS011;1322;53.256;10.386;2023-02-26T07:25:27;3.50;;;1.20;;
2624;SDS011;1322;53.256;10.386;2023-02-26T07:27:52;2.07;;;1.00;;
2624;SDS011;1322;53.256;10.386;2023-02-26T07:30:18;5.17;;;1.80;;
2624;SDS011;1322;53.256;10.386;2023-02-26T07:32:44;2.83;;;1.63;;
2624;SDS011;1322;53.256;10.386;2023-02-26T07:35:10;3.80;;;1.40;;
2624;SDS011;1322;53.256;10.386;2023-02-26T07:37:36;2.13;;;1.70;;
2624;SDS011;1322;53.256;10.386;2023-02-26T07:40:01;3.13;;;1.73;;
2624;SDS011;1322;53.256;10.386;2023-02-26T07:42:27;2.70;;;1.97;;
2624;SDS011;1322;53.256;10.386;2023-02-26T07:44:53;4.13;;;2.10;;
2624;SDS011;1322;53.256;10.386;2023-02-26T07:47:18;2.13;;;1.40;;
2624;SDS011;1322;53.256;10.386;2023-02-26T07:49:44;3.00;;;1.67;;
2624;SDS011;1322;53.256;10.386;2023-02-26T07:52:10;5.13;;;1.53;;
2624;SDS011;1322;53.256;10.386;2023-02-26T07:54:35;4.40;;;3.43;;
2624;SDS011;1322;53.256;10.386;2023-02-26T07:57:01;3.50;;;1.20;;
2624;SDS011;1322;53.256;10.386;2023-02-26T07:59:27;1.50;;;1.03;;
2624;SDS011;1322;53.256;10.386;2023-02-26T08:01:53;1.70;;;1.10;;
2624;SDS011;1322;53.256;10.386;2023-02-26T08:04:19;2.33;;;1.20;;
2624;SDS011;1322;53.256;10.386;2023-02-26T08:06:45;4.20;;;1.60;;
2624;SDS011;1322;53.256;10.386;2023-02-26T08:09:11;4.20;;;1.27;;
2624;SDS011;1322;53.256;10.386;2023-02-26T08:11:36;1.60;;;1.20;;
2624;SDS011;1322;53.256;10.386;2023-02-26T08:14:05;1.80;;;1.30;;
2624;SDS011;1322;53.256;10.386;2023-02-26T08:16:31;2.23;;;1.10;;
2624;SDS011;1322;53.256;10.386;2023-02-26T08:18:57;2.80;;;1.20;;
2624;SDS011;1322;53.256;10.386;2023-02-26T08:21:23;5.40;;;2.67;;
2624;SDS011;1322;53.256;10.386;2023-02-26T08:23:48;6.43;;;1.43;;
2624;SDS011;1322;53.256;10.386;2023-02-26T08:26:14;2.83;;;1.53;;
2624;SDS011;1322;53.256;10.386;2023-02-26T08:28:40;1.27;;;0.90;;
2624;SDS011;1322;53.256;10.386;2023-02-26T08:31:06;1.20;;;1.10;;
2624;SDS011;1322;53.256;10.386;2023-02-26T08:33:31;2.00;;;1.17;;
2624;SDS011;1322;53.256;10.386;2023-02-26T08:35:57;3.33;;;1.97;;
2624;SDS011;1322;53.256;10.386;2023-02-26T08:38:26;2.10;;;0.83;;
2624;SDS011;1322;53.256;10.386;2023-02-26T08:40:53;1.97;;;1.13;;
2624;SDS011;1322;53.256;10.386;2023-02-26T08:43:19;4.60;;;1.43;;
2624;SDS011;1322;53.256;10.386;2023-02-26T08:45:45;1.93;;;1.10;;
2624;SDS011;1322;53.256;10.386;2023-02-26T08:48:11;1.93;;;1.20;;
2624;SDS011;1322;53.256;10.386;2023-02-26T08:50:37;2.60;;;1.23;;
2624;SDS011;1322;53.256;10.386;2023-02-26T08:53:04;1.50;;;1.10;;
2624;SDS011;1322;53.256;10.386;2023-02-26T08:55:30;2.17;;;1.47;;
2624;SDS011;1322;53.256;10.386;2023-02-26T08:57:56;2.77;;;1.10;;
2624;SDS011;1322;53.256;10.386;2023-02-26T09:00:21;2.23;;;1.40;;
2624;SDS011;1322;53.256;10.386;2023-02-26T09:02:47;8.30;;;1.10;;
2624;SDS011;1322;53.256;10.386;2023-02-26T09:05:16;1.70;;;1.00;;
2624;SDS011;1322;53.256;10.386;2023-02-26T09:07:42;3.00;;;1.77;;
2624;SDS011;1322;53.256;10.386;2023-02-26T09:10:08;3.60;;;1.20;;
2624;SDS011;1322;53.256;10.386;2023-02-26T09:12:35;3.60;;;1.33;;
2624;SDS011;1322;53.256;10.386;2023-02-26T09:15:01;3.53;;;1.33;;
2624;SDS011;1322;53.256;10.386;2023-02-26T09:17:30;1.93;;;1.37;;
2624;SDS011;1322;53.256;10.386;2023-02-26T09:19:56;4.00;;;1.20;;
2624;SDS011;1322;53.256;10.386;2023-02-26T09:22:22;3.77;;;1.47;;
2624;SDS011;1322;53.256;10.386;2023-02-26T09:24:47;3.10;;;1.30;;
2624;SDS011;1322;53.256;10.386;2023-02-26T09:27:13;1.50;;;1.10;;
2624;SDS011;1322;53.256;10.386;2023-02-26T09:29:39;3.57;;;1.67;;
2624;SDS011;1322;53.256;10.386;2023-02-26T09:32:05;4.07;;;1.30;;
2624;SDS011;1322;53.256;10.386;2023-02-26T09:34:33;7.03;;;1.30;;
2624;SDS011;1322;53.256;10.386;2023-02-26T09:37:02;2.17;;;0.90;;
2624;SDS011;1322;53.256;10.386;2023-02-26T09:39:29;3.13;;;1.07;;
2624;SDS011;1322;53.256;10.386;2023-02-26T09:41:55;2.50;;;1.03;;
2624;SDS011;1322;53.256;10.386;2023-02-26T09:44:35;2.90;;;1.07;;
2624;SDS011;1322;53.256;10.386;2023-02-26T09:49:57;2.90;;;2.20;;
2624;SDS011;1322;53.256;10.386;2023-02-26T09:55:10;1.73;;;0.90;;
2624;SDS011;1322;53.256;10.386;2023-02-26T09:57:54;2.03;;;1.00;;
2624;SDS011;1322;53.256;10.386;2023-02-26T10:00:35;1.60;;;0.90;;
2624;SDS011;1322;53.256;10.386;2023-02-26T10:06:28;1.47;;;0.80;;
2624;SDS011;1322;53.256;10.386;2023-02-26T10:09:02;2.03;;;0.90;;
2624;SDS011;1322;53.256;10.386;2023-02-26T10:14:24;9.13;;;1.20;;
2624;SDS011;1322;53.256;10.386;2023-02-26T10:16:56;3.83;;;1.10;;
2624;SDS011;1322;53.256;10.386;2023-02-26T10:19:26;1.83;;;1.40;;
2624;SDS011;1322;53.256;10.386;2023-02-26T10:22:00;1.50;;;0.90;;
2624;SDS011;1322;53.256;10.386;2023-02-26T10:24:37;3.33;;;0.97;;
2624;SDS011;1322;53.256;10.386;2023-02-26T10:27:14;1.20;;;0.83;;
2624;SDS011;1322;53.256;10.386;2023-02-26T10:30:02;1.97;;;1.00;;
2624;SDS011;1322;53.256;10.386;2023-02-26T10:32:36;2.90;;;1.10;;
2624;SDS011;1322;53.256;10.386;2023-02-26T10:35:15;1.27;;;0.80;;
2624;SDS011;1322;53.256;10.386;2023-02-26T10:40:33;1.03;;;0.73;;
2624;SDS011;1322;53.256;10.386;2023-02-26T10:48:27;1.83;;;0.90;;
2624;SDS011;1322;53.256;10.386;2023-02-26T10:51:18;2.50;;;0.87;;
2624;SDS011;1322;53.256;10.386;2023-02-26T10:53:48;2.50;;;1.23;;
2624;SDS011;1322;53.256;10.386;2023-02-26T10:56:31;5.80;;;1.20;;
2624;SDS011;1322;53.256;10.386;2023-02-26T10:58:58;3.53;;;1.00;;
2624;SDS011;1322;53.256;10.386;2023-02-26T11:01:26;1.00;;;0.80;;
2624;SDS011;1322;53.256;10.386;2023-02-26T11:03:59;2.73;;;1.10;;
2624;SDS011;1322;53.256;10.386;2023-02-26T11:06:28;1.23;;;0.80;;
2624;SDS011;1322;53.256;10.386;2023-02-26T11:09:22;1.60;;;0.80;;
2624;SDS011;1322;53.256;10.386;2023-02-26T11:14:35;1.30;;;0.70;;
2624;SDS011;1322;53.256;10.386;2023-02-26T11:17:11;2.87;;;1.10;;
2624;SDS011;1322;53.256;10.386;2023-02-26T11:19:43;3.73;;;0.90;;
2624;SDS011;1322;53.256;10.386;2023-02-26T11:22:16;1.47;;;0.90;;
2624;SDS011;1322;53.256;10.386;2023-02-26T11:24:46;2.13;;;0.97;;
2624;SDS011;1322;53.256;10.386;2023-02-26T11:27:17;3.00;;;1.00;;
2624;SDS011;1322;53.256;10.386;2023-02-26T11:29:45;2.60;;;0.80;;
2624;SDS011;1322;53.256;10.386;2023-02-26T11:32:17;2.80;;;0.90;;
2624;SDS011;1322;53.256;10.386;2023-02-26T11:34:45;1.40;;;0.70;;
2624;SDS011;1322;53.256;10.386;2023-02-26T11:37:12;3.20;;;1.10;;
2624;SDS011;1322;53.256;10.386;2023-02-26T11:39:44;4.07;;;1.00;;
2624;SDS011;1322;53.256;10.386;2023-02-26T11:42:10;2.40;;;0.80;;
2624;SDS011;1322;53.256;10.386;2023-02-26T11:44:46;1.47;;;0.80;;
2624;SDS011;1322;53.256;10.386;2023-02-26T11:47:16;4.20;;;1.10;;
2624;SDS011;1322;53.256;10.386;2023-02-26T11:49:50;2.90;;;0.70;;
2624;SDS011;1322;53.256;10.386;2023-02-26T11:52:28;1.40;;;0.77;;
2624;SDS011;1322;53.256;10.386;2023-02-26T11:55:04;2.17;;;0.80;;
2624;SDS011;1322;53.256;10.386;2023-02-26T11:57:46;2.87;;;0.73;;
2624;SDS011;1322;53.256;10.386;2023-02-26T12:00:29;1.00;;;0.73;;
2624;SDS011;1322;53.256;10.386;2023-02-26T12:03:00;1.57;;;0.90;;
2624;SDS011;1322;53.256;10.386;2023-02-26T12:05:28;2.33;;;1.10;;
2624;SDS011;1322;53.256;10.386;2023-02-26T12:07:55;1.20;;;0.83;;
2624;SDS011;1322;53.256;10.386;2023-02-26T12:10:22;1.77;;;0.77;;
2624;SDS011;1322;53.256;10.386;2023-02-26T12:16:11;1.17;;;0.77;;
2624;SDS011;1322;53.256;10.386;2023-02-26T12:18:55;1.30;;;0.93;;
2624;SDS011;1322;53.256;10.386;2023-02-26T12:24:33;1.10;;;0.70;;
2624;SDS011;1322;53.256;10.386;2023-02-26T12:27:15;1.00;;;0.60;;
2624;SDS011;1322;53.256;10.386;2023-02-26T12:35:35;1.87;;;1.00;;
2624;SDS011;1322;53.256;10.386;2023-02-26T12:38:38;2.23;;;0.80;;
2624;SDS011;1322;53.256;10.386;2023-02-26T12:41:18;1.97;;;0.93;;
2624;SDS011;1322;53.256;10.386;2023-02-26T12:44:00;1.10;;;0.80;;
2624;SDS011;1322;53.256;10.386;2023-02-26T12:46:54;1.23;;;0.70;;
2624;SDS011;1322;53.256;10.386;2023-02-26T12:50:16;1.87;;;1.10;;
2624;SDS011;1322;53.256;10.386;2023-02-26T12:55:26;1.10;;;0.80;;
2624;SDS011;1322;53.256;10.386;2023-02-26T12:58:24;13.23;;;1.07;;
2624;SDS011;1322;53.256;10.386;2023-02-26T13:09:32;1.20;;;0.60;;
2624;SDS011;1322;53.256;10.386;2023-02-26T13:22:48;2.20;;;1.10;;
2624;SDS011;1322;53.256;10.386;2023-02-26T13:25:38;4.50;;;0.97;;
2624;SDS011;1322;53.256;10.386;2023-02-26T13:28:19;2.50;;;0.97;;
2624;SDS011;1322;53.256;10.386;2023-02-26T13:30:55;2.60;;;0.80;;
2624;SDS011;1322;53.256;10.386;2023-02-26T13:33:28;1.10;;;0.80;;
2624;SDS011;1322;53.256;10.386;2023-02-26T13:35:57;2.93;;;1.30;;
2624;SDS011;1322;53.256;10.386;2023-02-26T13:41:03;1.63;;;0.93;;
2624;SDS011;1322;53.256;10.386;2023-02-26T13:43:57;2.07;;;0.90;;
2624;SDS011;1322;53.256;10.386;2023-02-26T13:46:57;2.97;;;1.27;;
2624;SDS011;1322;53.256;10.386;2023-02-26T13:52:28;3.13;;;1.17;;
2624;SDS011;1322;53.256;10.386;2023-02-26T13:54:56;3.23;;;1.67;;
2624;SDS011;1322;53.256;10.386;2023-02-26T14:02:49;3.20;;;1.57;;
2624;SDS011;1322;53.256;10.386;2023-02-26T14:18:51;1.50;;;1.03;;
2624;SDS011;1322;53.256;10.386;2023-02-26T14:21:33;5.40;;;1.03;;
2624;SDS011;1322;53.256;10.386;2023-02-26T14:29:52;2.40;;;1.20;;
2624;SDS011;1322;53.256;10.386;2023-02-26T14:32:30;3.40;;;1.30;;
2624;SDS011;1322;53.256;10.386;2023-02-26T14:34:59;2.90;;;1.10;;
2624;SDS011;1322;53.256;10.386;2023-02-26T14:37:30;3.03;;;1.40;;
2624;SDS011;1322;53.256;10.386;2023-02-26T14:40:05;2.70;;;0.90;;
2624;SDS011;1322;53.256;10.386;2023-02-26T14:42:56;7.90;;;1.93;;
2624;SDS011;1322;53.256;10.386;2023-02-26T14:47:55;7.00;;;1.40;;
2624;SDS011;1322;53.256;10.386;2023-02-26T14:50:28;1.30;;;0.87;;
2624;SDS011;1322;53.256;10.386;2023-02-26T14:53:22;3.40;;;1.40;;
2624;SDS011;1322;53.256;10.386;2023-02-26T15:01:52;2.57;;;1.20;;
2624;SDS011;1322;53.256;10.386;2023-02-26T15:04:28;4.30;;;1.50;;
2624;SDS011;1322;53.256;10.386;2023-02-26T15:07:26;1.27;;;0.87;;
2624;SDS011;1322;53.256;10.386;2023-02-26T15:10:23;7.70;;;1.40;;
2624;SDS011;1322;53.256;10.386;2023-02-26T15:15:52;2.40;;;1.10;;
2624;SDS011;1322;53.256;10.386;2023-02-26T15:23:55;2.90;;;1.30;;
2624;SDS011;1322;53.256;10.386;2023-02-26T15:28:54;1.57;;;1.00;;
2624;SDS011;1322;53.256;10.386;2023-02-26T15:31:27;2.97;;;0.90;;
2624;SDS011;1322;53.256;10.386;2023-02-26T15:33:59;3.20;;;1.20;;
2624;SDS011;1322;53.256;10.386;2023-02-26T15:36:27;3.83;;;1.57;;
2624;SDS011;1322;53.256;10.386;2023-02-26T15:38:59;2.30;;;1.40;;
2624;SDS011;1322;53.256;10.386;2023-02-26T15:41:31;4.13;;;1.77;;
2624;SDS011;1322;53.256;10.386;2023-02-26T15:44:02;2.73;;;1.40;;
2624;SDS011;1322;53.256;10.386;2023-02-26T15:46:32;1.93;;;0.97;;
2624;SDS011;1322;53.256;10.386;2023-02-26T15:52:21;2.27;;;1.20;;
2624;SDS011;1322;53.256;10.386;2023-02-26T15:54:49;7.50;;;2.40;;
2624;SDS011;1322;53.256;10.386;2023-02-26T15:57:18;4.20;;;1.83;;
2624;SDS011;1322;53.256;10.386;2023-02-26T15:59:48;2.90;;;1.60;;
2624;SDS011;1322;53.256;10.386;2023-02-26T16:02:20;2.13;;;1.27;;
2624;SDS011;1322;53.256;10.386;2023-02-26T16:04:50;1.50;;;1.00;;
2624;SDS011;1322;53.256;10.386;2023-02-26T16:07:17;2.60;;;1.70;;
2624;SDS011;1322;53.256;10.386;2023-02-26T16:09:44;4.70;;;1.70;;
2624;SDS011;1322;53.256;10.386;2023-02-26T16:12:18;3.40;;;1.27;;
2624;SDS011;1322;53.256;10.386;2023-02-26T16:15:02;1.47;;;0.90;;
2624;SDS011;1322;53.256;10.386;2023-02-26T16:17:32;3.23;;;1.53;;
2624;SDS011;1322;53.256;10.386;2023-02-26T16:20:04;6.00;;;1.90;;
2624;SDS011;1322;53.256;10.386;2023-02-26T16:22:46;4.83;;;2.70;;
2624;SDS011;1322;53.256;10.386;2023-02-26T16:25:19;5.00;;;2.07;;
2624;SDS011;1322;53.256;10.386;2023-02-26T16:28:03;5.03;;;1.50;;
2624;SDS011;1322;53.256;10.386;2023-02-26T16:30:41;2.80;;;1.57;;
2624;SDS011;1322;53.256;10.386;2023-02-26T16:33:12;4.50;;;1.60;;
2624;SDS011;1322;53.256;10.386;2023-02-26T16:35:47;5.47;;;1.90;;
2624;SDS011;1322;53.256;10.386;2023-02-26T16:38:31;2.53;;;1.30;;
2624;SDS011;1322;53.256;10.386;2023-02-26T16:41:20;3.40;;;1.80;;
2624;SDS011;1322;53.256;10.386;2023-02-26T16:43:55;2.73;;;1.50;;
2624;SDS011;1322;53.256;10.386;2023-02-26T16:46:28;2.93;;;1.60;;
2624;SDS011;1322;53.256;10.386;2023-02-26T16:49:05;4.80;;;1.80;;
2624;SDS011;1322;53.256;10.386;2023-02-26T16:51:46;3.47;;;1.40;;
2624;SDS011;1322;53.256;10.386;2023-02-26T16:54:19;1.70;;;1.33;;
2624;SDS011;1322;53.256;10.386;2023-02-26T16:56:58;3.17;;;1.60;;
2624;SDS011;1322;53.256;10.386;2023-02-26T16:59:31;5.87;;;1.63;;
2624;SDS011;1322;53.256;10.386;2023-02-26T17:04:29;7.83;;;1.83;;
2624;SDS011;1322;53.256;10.386;2023-02-26T17:06:58;3.97;;;1.83;;
2624;SDS011;1322;53.256;10.386;2023-02-26T17:14:46;3.27;;;1.87;;
2624;SDS011;1322;53.256;10.386;2023-02-26T17:17:18;8.20;;;2.17;;
2624;SDS011;1322;53.256;10.386;2023-02-26T17:19:44;5.53;;;1.73;;
2624;SDS011;1322;53.256;10.386;2023-02-26T17:22:13;3.93;;;1.63;;
2624;SDS011;1322;53.256;10.386;2023-02-26T17:24:41;5.27;;;1.87;;
2624;SDS011;1322;53.256;10.386;2023-02-26T17:27:10;2.87;;;1.47;;
2624;SDS011;1322;53.256;10.386;2023-02-26T17:29:42;2.53;;;1.50;;
2624;SDS011;1322;53.256;10.386;2023-02-26T17:32:11;4.40;;;2.40;;
2624;SDS011;1322;53.256;10.386;2023-02-26T17:34:45;3.30;;;1.83;;
2624;SDS011;1322;53.256;10.386;2023-02-26T17:37:11;7.70;;;1.70;;
2624;SDS011;1322;53.256;10.386;2023-02-26T17:39:39;4.23;;;2.50;;
2624;SDS011;1322;53.256;10.386;2023-02-26T17:42:12;4.10;;;2.60;;
2624;SDS011;1322;53.256;10.386;2023-02-26T17:44:47;4.17;;;2.57;;
2624;SDS011;1322;53.256;10.386;2023-02-26T17:47:15;4.23;;;2.57;;
2624;SDS011;1322;53.256;10.386;2023-02-26T17:49:45;3.60;;;2.60;;
2624;SDS011;1322;53.256;10.386;2023-02-26T17:52:11;6.53;;;2.80;;
2624;SDS011;1322;53.256;10.386;2023-02-26T17:54:37;4.23;;;2.90;;
2624;SDS011;1322;53.256;10.386;2023-02-26T17:57:03;6.90;;;2.60;;
2624;SDS011;1322;53.256;10.386;2023-02-26T17:59:30;5.67;;;3.33;;
2624;SDS011;1322;53.256;10.386;2023-02-26T18:01:55;11.43;;;2.10;;
2624;SDS011;1322;53.256;10.386;2023-02-26T18:04:21;5.20;;;2.77;;
2624;SDS011;1322;53.256;10.386;2023-02-26T18:06:47;7.90;;;3.10;;
2624;SDS011;1322;53.256;10.386;2023-02-26T18:09:13;8.20;;;3.20;;
2624;SDS011;1322;53.256;10.386;2023-02-26T18:11:39;4.90;;;2.87;;
2624;SDS011;1322;53.256;10.386;2023-02-26T18:14:06;7.87;;;2.87;;